createdAt,value
2023-04-10T00:00:21.507Z,16.37
2023-04-10T00:02:50.210Z,16.20
2023-04-10T00:05:23.357Z,17.47
2023-04-10T00:07:52.256Z,20.55
2023-04-10T00:10:22.154Z,19.17
2023-04-10T00:12:52.969Z,18.15
2023-04-10T00:15:21.277Z,17.03
2023-04-10T00:17:51.516Z,15.80
2023-04-10T00:20:19.896Z,17.27
2023-04-10T00:22:48.447Z,18.43
2023-04-10T00:25:17.016Z,16.17
2023-04-10T00:27:45.595Z,17.47
2023-04-10T00:30:14.098Z,16.67
2023-04-10T00:32:43.881Z,16.55
2023-04-10T00:35:12.406Z,16.03
2023-04-10T00:37:41.787Z,19.97
2023-04-10T00:40:10.564Z,18.00
2023-04-10T00:42:39.760Z,16.83
2023-04-10T00:45:08.474Z,18.10
2023-04-10T00:47:37.950Z,16.63
2023-04-10T00:50:06.541Z,16.60
2023-04-10T00:52:35.851Z,17.25
2023-04-10T00:55:05.682Z,18.42
2023-04-10T00:57:34.303Z,18.60
2023-04-10T01:00:04.761Z,18.67
2023-04-10T01:02:33.642Z,17.42
2023-04-10T01:05:02.492Z,17.17
2023-04-10T01:07:50.907Z,16.53
2023-04-10T01:10:20.942Z,16.07
2023-04-10T01:12:51.087Z,15.73
2023-04-10T01:15:20.785Z,15.27
2023-04-10T01:17:59.757Z,16.37
2023-04-10T01:20:30.144Z,16.27
2023-04-10T01:23:00.513Z,15.90
2023-04-10T01:25:42.677Z,15.93
2023-04-10T01:28:13.133Z,16.63
2023-04-10T01:30:42.267Z,16.17
2023-04-10T01:33:12.150Z,16.40
2023-04-10T01:35:42.542Z,16.40
2023-04-10T01:38:11.686Z,15.93
2023-04-10T01:40:42.162Z,15.50
2023-04-10T01:43:12.441Z,14.40
2023-04-10T01:45:46.679Z,14.97
2023-04-10T01:48:16.767Z,15.00
2023-04-10T01:50:45.985Z,16.67
2023-04-10T01:53:15.731Z,12.83
2023-04-10T01:55:44.764Z,13.30
2023-04-10T01:58:14.028Z,13.87
2023-04-10T02:00:43.969Z,12.57
2023-04-10T02:03:12.990Z,13.07
2023-04-10T02:05:55.189Z,10.97
2023-04-10T02:08:34.196Z,13.03
2023-04-10T02:11:21.081Z,13.08
2023-04-10T02:13:54.053Z,12.87
2023-04-10T02:16:23.015Z,13.43
2023-04-10T02:18:52.358Z,12.45
2023-04-10T02:21:20.811Z,12.33
2023-04-10T02:23:49.372Z,13.27
2023-04-10T02:26:17.861Z,13.70
2023-04-10T02:28:46.366Z,11.47
2023-04-10T02:31:14.771Z,18.77
2023-04-10T02:33:43.364Z,12.97
2023-04-10T02:36:12.970Z,11.50
2023-04-10T02:38:41.480Z,11.67
2023-04-10T02:41:10.476Z,11.87
2023-04-10T02:43:39.054Z,10.63
2023-04-10T02:46:07.922Z,12.93
2023-04-10T02:48:37.787Z,14.73
2023-04-10T02:51:07.589Z,12.43
2023-04-10T02:53:36.753Z,12.70
2023-04-10T02:56:06.666Z,13.47
2023-04-10T02:58:36.068Z,14.20
2023-04-10T03:01:06.874Z,13.10
2023-04-10T03:06:14.413Z,12.30
2023-04-10T03:08:44.293Z,11.93
2023-04-10T03:11:12.925Z,13.13
2023-04-10T03:13:41.596Z,14.60
2023-04-10T03:16:10.502Z,13.73
2023-04-10T03:18:39.728Z,13.28
2023-04-10T03:21:08.174Z,12.83
2023-04-10T03:23:37.073Z,15.35
2023-04-10T03:26:05.701Z,13.87
2023-04-10T03:28:36.651Z,14.00
2023-04-10T03:31:06.112Z,12.70
2023-04-10T03:36:05.294Z,12.98
2023-04-10T03:38:34.254Z,17.10
2023-04-10T03:41:03.314Z,13.70
2023-04-10T03:43:33.276Z,12.98
2023-04-10T03:46:02.269Z,13.93
2023-04-10T03:48:30.559Z,13.53
2023-04-10T03:50:59.413Z,14.13
2023-04-10T03:53:28.151Z,14.03
2023-04-10T03:55:56.764Z,18.43
2023-04-10T03:58:25.995Z,14.58
2023-04-10T04:00:55.329Z,14.17
2023-04-10T04:03:28.218Z,15.60
2023-04-10T04:06:15.178Z,16.40
2023-04-10T04:08:45.271Z,15.03
2023-04-10T04:11:33.940Z,13.65
2023-04-10T04:14:04.963Z,14.50
2023-04-10T04:16:41.157Z,13.73
2023-04-10T04:19:27.634Z,16.10
2023-04-10T04:22:14.151Z,18.70
2023-04-10T04:24:44.135Z,18.17
2023-04-10T04:27:16.983Z,13.43
2023-04-10T04:29:50.473Z,14.65
2023-04-10T04:32:26.799Z,15.10
2023-04-10T04:34:56.794Z,15.57
2023-04-10T04:37:43.790Z,14.30
2023-04-10T04:40:19.826Z,14.20
2023-04-10T04:42:59.021Z,11.80
2023-04-10T04:45:35.140Z,13.47
2023-04-10T04:48:07.860Z,13.30
2023-04-10T04:50:53.167Z,14.23
2023-04-10T04:53:41.617Z,14.13
2023-04-10T04:56:30.482Z,14.83
2023-04-10T04:59:06.413Z,14.90
2023-04-10T05:01:53.231Z,14.07
2023-04-10T05:04:29.635Z,18.07
2023-04-10T05:07:05.999Z,13.63
2023-04-10T05:09:36.653Z,13.40
2023-04-10T05:12:23.306Z,18.10
2023-04-10T05:14:56.482Z,13.13
2023-04-10T05:17:29.855Z,14.53
2023-04-10T05:20:06.716Z,13.73
2023-04-10T05:22:53.197Z,16.90
2023-04-10T05:25:38.460Z,13.43
2023-04-10T05:28:11.612Z,14.70
2023-04-10T05:30:58.877Z,15.30
2023-04-10T05:33:41.052Z,15.10
2023-04-10T05:36:26.619Z,16.20
2023-04-10T05:39:13.453Z,16.93
2023-04-10T05:41:49.582Z,18.80
2023-04-10T05:44:28.700Z,16.60
2023-04-10T05:47:07.816Z,19.60
2023-04-10T05:49:37.725Z,19.00
2023-04-10T05:52:24.342Z,17.07
2023-04-10T05:55:03.642Z,18.17
2023-04-10T05:57:51.359Z,18.45
2023-04-10T06:00:38.010Z,19.63
2023-04-10T06:03:26.795Z,19.75
2023-04-10T06:05:58.305Z,20.77
2023-04-10T06:08:26.892Z,17.47
2023-04-10T06:10:55.423Z,18.00
2023-04-10T06:13:24.230Z,20.67
2023-04-10T06:15:54.499Z,20.27
2023-04-10T06:18:23.029Z,21.03
2023-04-10T06:20:51.538Z,20.70
2023-04-10T06:23:21.121Z,20.30
2023-04-10T06:25:50.474Z,22.13
2023-04-10T06:28:19.450Z,22.50
2023-04-10T06:30:49.152Z,21.63
2023-04-10T06:33:17.812Z,26.23
2023-04-10T06:35:47.115Z,23.60
2023-04-10T06:38:15.715Z,22.77
2023-04-10T06:40:44.802Z,25.50
2023-04-10T06:43:13.218Z,23.10
2023-04-10T06:45:42.164Z,21.27
2023-04-10T06:48:10.377Z,23.03
2023-04-10T06:50:39.024Z,20.27
2023-04-10T06:53:07.538Z,22.50
2023-04-10T06:55:37.511Z,21.20
2023-04-10T06:58:05.928Z,19.27
2023-04-10T07:00:34.605Z,21.87
2023-04-10T07:03:03.232Z,20.07
2023-04-10T07:05:31.960Z,18.00
2023-04-10T07:08:00.474Z,19.07
2023-04-10T07:10:29.109Z,19.83
2023-04-10T07:12:58.836Z,20.02
2023-04-10T07:15:27.339Z,18.30
2023-04-10T07:17:56.473Z,19.67
2023-04-10T07:20:25.081Z,21.30
2023-04-10T07:22:53.597Z,20.87
2023-04-10T07:25:21.932Z,18.63
2023-04-10T07:27:50.484Z,19.17
2023-04-10T07:30:20.137Z,18.37
2023-04-10T07:32:48.824Z,19.10
2023-04-10T07:35:17.645Z,19.10
2023-04-10T07:37:48.073Z,17.65
2023-04-10T07:40:16.596Z,16.40
2023-04-10T07:42:45.911Z,17.83
2023-04-10T07:45:14.174Z,17.13
2023-04-10T07:47:42.711Z,17.27
2023-04-10T07:50:11.285Z,16.97
2023-04-10T07:52:39.888Z,14.87
2023-04-10T07:55:08.459Z,14.20
2023-04-10T07:57:36.990Z,13.93
2023-04-10T08:00:05.635Z,16.63
2023-04-10T08:02:36.113Z,14.53
2023-04-10T08:05:05.553Z,14.98
2023-04-10T08:07:35.866Z,14.77
2023-04-10T08:10:04.620Z,14.83
2023-04-10T08:12:36.976Z,16.32
2023-04-10T08:15:06.244Z,14.87
2023-04-10T08:17:34.849Z,14.43
2023-04-10T08:20:04.799Z,13.77
2023-04-10T08:22:33.582Z,14.63
2023-04-10T08:25:02.508Z,13.83
2023-04-10T08:27:31.090Z,13.03
2023-04-10T08:29:59.628Z,14.80
2023-04-10T08:32:29.003Z,14.37
2023-04-10T08:34:57.982Z,13.32
2023-04-10T08:37:26.889Z,13.20
2023-04-10T08:39:55.792Z,12.60
2023-04-10T08:42:25.176Z,13.33
2023-04-10T08:44:53.992Z,12.60
2023-04-10T08:47:23.832Z,12.53
2023-04-10T08:49:57.359Z,12.85
2023-04-10T08:52:26.652Z,12.10
2023-04-10T08:54:56.087Z,11.60
2023-04-10T08:57:26.908Z,11.27
2023-04-10T08:59:55.731Z,11.00
2023-04-10T09:02:25.544Z,11.33
2023-04-10T09:04:57.142Z,11.87
2023-04-10T09:07:27.122Z,12.25
2023-04-10T09:09:55.952Z,11.43
2023-04-10T09:12:24.408Z,12.27
2023-04-10T09:14:53.548Z,12.82
2023-04-10T09:17:23.143Z,11.53
2023-04-10T09:19:53.432Z,10.00
2023-04-10T09:22:32.136Z,10.53
2023-04-10T09:25:01.263Z,9.70
2023-04-10T09:27:32.314Z,10.17
2023-04-10T09:30:01.300Z,11.63
2023-04-10T09:32:40.675Z,9.70
2023-04-10T09:35:10.102Z,10.23
2023-04-10T09:40:25.746Z,9.53
2023-04-10T09:42:57.313Z,8.58
2023-04-10T09:45:25.522Z,9.00
2023-04-10T09:48:04.463Z,8.15
2023-04-10T09:50:40.855Z,7.60
2023-04-10T09:53:10.335Z,9.40
2023-04-10T09:55:39.203Z,8.40
2023-04-10T09:58:08.011Z,8.20
2023-04-10T10:00:38.297Z,8.45
2023-04-10T10:03:08.776Z,8.80
2023-04-10T10:05:38.657Z,8.03
2023-04-10T10:08:08.077Z,7.87
2023-04-10T10:10:38.156Z,8.13
2023-04-10T10:13:07.756Z,9.17
2023-04-10T10:15:40.817Z,8.83
2023-04-10T10:18:27.554Z,8.93
2023-04-10T10:20:56.448Z,8.20
2023-04-10T10:23:25.767Z,8.18
2023-04-10T10:25:55.811Z,9.40
2023-04-10T10:28:25.249Z,9.40
2023-04-10T10:30:54.034Z,8.93
2023-04-10T10:33:22.710Z,7.95
2023-04-10T10:35:51.471Z,8.63
2023-04-10T10:38:20.240Z,8.67
2023-04-10T10:41:08.175Z,8.33
2023-04-10T10:43:38.179Z,7.80
2023-04-10T10:46:11.558Z,7.77
2023-04-10T10:48:40.087Z,7.77
2023-04-10T10:51:08.595Z,7.80
2023-04-10T10:53:40.841Z,8.23
2023-04-10T10:56:26.635Z,9.00
2023-04-10T10:59:01.760Z,9.25
2023-04-10T11:01:30.321Z,8.50
2023-04-10T11:03:59.990Z,7.77
2023-04-10T11:06:30.573Z,6.93
2023-04-10T11:08:59.169Z,6.97
2023-04-10T11:11:27.846Z,7.43
2023-04-10T11:13:57.996Z,7.40
2023-04-10T11:16:35.641Z,7.20
2023-04-10T11:19:15.012Z,7.30
2023-04-10T11:21:37.265Z,7.03
2023-04-10T11:24:06.099Z,6.27
2023-04-10T11:26:42.513Z,7.20
2023-04-10T11:29:15.612Z,7.37
2023-04-10T11:31:45.399Z,7.10
2023-04-10T11:34:15.745Z,7.40
2023-04-10T11:36:49.227Z,7.17
2023-04-10T11:39:18.565Z,6.80
2023-04-10T11:41:48.158Z,6.37
2023-04-10T11:44:19.831Z,6.80
2023-04-10T11:46:50.347Z,6.53
2023-04-10T11:49:19.695Z,7.10
2023-04-10T11:51:49.115Z,8.37
2023-04-10T11:54:21.833Z,7.50
2023-04-10T11:57:01.197Z,6.75
2023-04-10T11:59:30.314Z,7.93
2023-04-10T12:02:12.858Z,6.47
2023-04-10T12:04:42.700Z,6.97
2023-04-10T12:07:11.401Z,6.97
2023-04-10T12:09:40.654Z,7.33
2023-04-10T12:12:09.154Z,7.53
2023-04-10T12:14:39.349Z,7.43
2023-04-10T12:17:08.402Z,6.17
2023-04-10T12:19:37.469Z,6.90
2023-04-10T12:22:06.571Z,6.80
2023-04-10T12:24:43.431Z,7.27
2023-04-10T12:27:26.653Z,7.45
2023-04-10T12:29:59.158Z,8.80
2023-04-10T12:32:27.891Z,7.00
2023-04-10T12:35:03.504Z,7.37
2023-04-10T12:37:51.303Z,7.23
2023-04-10T12:40:20.699Z,7.43
2023-04-10T12:42:49.382Z,7.23
2023-04-10T12:45:17.638Z,7.57
2023-04-10T12:47:51.860Z,7.20
2023-04-10T12:50:21.029Z,7.80
2023-04-10T12:53:03.137Z,7.93
2023-04-10T12:55:31.656Z,7.73
2023-04-10T12:58:01.780Z,7.17
2023-04-10T13:00:30.299Z,7.87
2023-04-10T13:02:58.910Z,7.93
2023-04-10T13:05:27.625Z,8.33
2023-04-10T13:07:56.101Z,7.53
2023-04-10T13:10:24.872Z,8.13
2023-04-10T13:12:53.358Z,7.83
2023-04-10T13:15:21.617Z,8.83
2023-04-10T13:17:50.146Z,8.20
2023-04-10T13:20:18.683Z,8.00
2023-04-10T13:22:47.277Z,7.53
2023-04-10T13:25:15.498Z,8.60
2023-04-10T13:27:44.082Z,7.60
2023-04-10T13:30:12.630Z,8.70
2023-04-10T13:32:41.087Z,8.17
2023-04-10T13:35:09.467Z,8.27
2023-04-10T13:37:38.382Z,7.90
2023-04-10T13:40:07.613Z,7.10
2023-04-10T13:42:38.813Z,6.60
2023-04-10T13:45:06.235Z,7.17
2023-04-10T13:47:35.212Z,6.45
2023-04-10T13:50:04.784Z,7.25
2023-04-10T13:52:33.371Z,7.50
2023-04-10T13:55:02.181Z,6.45
2023-04-10T13:57:30.880Z,7.70
2023-04-10T13:59:59.484Z,7.00
2023-04-10T14:02:28.113Z,5.43
2023-04-10T14:04:56.819Z,5.30
2023-04-10T14:07:25.362Z,5.33
2023-04-10T14:09:53.878Z,7.07
2023-04-10T14:12:22.978Z,6.03
2023-04-10T14:14:51.777Z,5.75
2023-04-10T14:17:20.001Z,5.87
2023-04-10T14:19:50.087Z,6.43
2023-04-10T14:22:18.739Z,5.47
2023-04-10T14:24:47.562Z,5.10
2023-04-10T14:27:16.613Z,5.17
2023-04-10T14:29:54.401Z,4.73
2023-04-10T14:32:15.379Z,5.13
2023-04-10T14:34:43.898Z,5.40
2023-04-10T14:37:14.131Z,4.67
2023-04-10T14:39:42.066Z,6.07
2023-04-10T14:42:10.643Z,5.47
2023-04-10T14:44:39.174Z,5.27
2023-04-10T14:47:07.907Z,4.97
2023-04-10T14:49:36.373Z,5.30
2023-04-10T14:52:05.021Z,5.50
2023-04-10T14:54:33.565Z,5.50
2023-04-10T14:57:02.334Z,5.40
2023-04-10T14:59:31.578Z,5.77
2023-04-10T15:02:00.667Z,5.87
2023-04-10T15:04:29.159Z,5.83
2023-04-10T15:06:58.011Z,6.78
2023-04-10T15:09:26.492Z,5.47
2023-04-10T15:11:56.534Z,5.73
2023-04-10T15:14:24.739Z,5.63
2023-04-10T15:16:54.131Z,5.53
2023-04-10T15:19:22.826Z,5.12
2023-04-10T15:21:51.305Z,5.83
2023-04-10T15:24:19.809Z,5.53
2023-04-10T15:26:48.579Z,4.95
2023-04-10T15:29:16.778Z,4.43
2023-04-10T15:31:45.329Z,4.97
2023-04-10T15:34:13.657Z,4.43
2023-04-10T15:36:47.612Z,4.70
2023-04-10T15:39:16.100Z,4.57
2023-04-10T15:41:44.601Z,4.70
2023-04-10T15:44:13.607Z,5.05
2023-04-10T15:46:43.130Z,4.90
2023-04-10T15:49:11.551Z,4.83
2023-04-10T15:51:40.371Z,4.05
2023-04-10T15:54:09.092Z,4.17
2023-04-10T15:56:38.018Z,4.50
2023-04-10T15:59:06.565Z,4.23
2023-04-10T16:01:35.468Z,5.03
2023-04-10T16:04:05.389Z,4.30
2023-04-10T16:06:35.080Z,4.27
2023-04-10T16:09:12.454Z,4.78
2023-04-10T16:11:34.982Z,3.50
2023-04-10T16:14:03.553Z,4.03
2023-04-10T16:16:32.245Z,4.07
2023-04-10T16:19:01.819Z,4.58
2023-04-10T16:21:31.386Z,4.73
2023-04-10T16:24:00.783Z,4.93
2023-04-10T16:26:29.336Z,3.70
2023-04-10T16:28:57.812Z,4.53
2023-04-10T16:31:26.343Z,4.57
2023-04-10T16:33:54.964Z,3.87
2023-04-10T16:36:23.454Z,4.10
2023-04-10T16:38:51.960Z,3.60
2023-04-10T16:41:21.001Z,4.27
2023-04-10T16:43:50.076Z,3.65
2023-04-10T16:46:18.627Z,4.30
2023-04-10T16:48:47.180Z,4.27
2023-04-10T16:51:17.339Z,3.87
2023-04-10T16:53:45.902Z,4.00
2023-04-10T16:56:14.477Z,3.80
2023-04-10T16:58:43.086Z,4.10
2023-04-10T17:01:18.879Z,3.33
2023-04-10T17:03:49.158Z,4.47
2023-04-10T17:06:17.699Z,4.03
2023-04-10T17:08:46.667Z,4.47
2023-04-10T17:11:16.029Z,3.33
2023-04-10T17:13:44.839Z,4.30
2023-04-10T17:16:13.048Z,4.23
2023-04-10T17:18:41.609Z,4.33
2023-04-10T17:21:13.341Z,4.80
2023-04-10T17:23:42.151Z,4.00
2023-04-10T17:26:14.685Z,4.97
2023-04-10T17:28:46.879Z,4.57
2023-04-10T17:31:15.934Z,5.03
2023-04-10T17:33:44.700Z,4.33
2023-04-10T17:36:13.804Z,5.67
2023-04-10T17:38:42.829Z,5.50
2023-04-10T17:41:12.917Z,5.33
2023-04-10T17:43:41.242Z,5.37
2023-04-10T17:46:11.371Z,6.32
2023-04-10T17:48:39.652Z,5.40
2023-04-10T17:51:08.285Z,6.37
2023-04-10T17:53:36.876Z,5.23
2023-04-10T17:56:05.439Z,5.57
2023-04-10T17:58:33.958Z,5.30
2023-04-10T18:01:02.589Z,5.97
2023-04-10T18:03:31.508Z,7.03
2023-04-10T18:06:00.096Z,6.70
2023-04-10T18:08:28.573Z,5.30
2023-04-10T18:10:57.107Z,5.73
2023-04-10T18:13:25.718Z,5.00
2023-04-10T18:15:54.282Z,5.83
2023-04-10T18:18:22.690Z,5.53
2023-04-10T18:20:51.201Z,4.60
2023-04-10T18:23:19.870Z,4.47
2023-04-10T18:25:52.051Z,4.97
2023-04-10T18:28:21.036Z,4.60
2023-04-10T18:30:49.772Z,5.10
2023-04-10T18:33:19.937Z,5.10
2023-04-10T18:35:48.766Z,5.00
2023-04-10T18:38:17.160Z,5.20
2023-04-10T18:40:45.912Z,5.60
2023-04-10T18:43:14.482Z,5.83
2023-04-10T18:45:43.321Z,5.77
2023-04-10T18:48:11.596Z,5.50
2023-04-10T18:50:40.287Z,9.37
2023-04-10T18:53:08.977Z,8.67
2023-04-10T18:55:37.492Z,11.27
2023-04-10T18:58:06.074Z,10.40
2023-04-10T19:00:34.725Z,9.20
2023-04-10T19:03:03.472Z,11.43
2023-04-10T19:05:34.890Z,11.93
2023-04-10T19:08:04.976Z,12.13
2023-04-10T19:10:33.921Z,12.10
2023-04-10T19:13:02.429Z,12.27
2023-04-10T19:15:31.267Z,11.77
2023-04-10T19:17:59.763Z,13.17
2023-04-10T19:20:49.740Z,12.50
2023-04-10T19:22:58.419Z,12.50
2023-04-10T19:25:26.996Z,12.20
2023-04-10T19:27:55.505Z,13.17
2023-04-10T19:30:23.802Z,13.73
2023-04-10T19:32:53.248Z,14.00
2023-04-10T19:35:22.506Z,16.60
2023-04-10T19:37:51.353Z,18.40
2023-04-10T19:40:19.618Z,16.20
2023-04-10T19:42:48.110Z,18.20
2023-04-10T19:45:16.725Z,16.73
2023-04-10T19:47:45.683Z,13.60
2023-04-10T19:50:14.166Z,14.47
2023-04-10T19:52:42.965Z,15.28
2023-04-10T19:55:11.459Z,14.10
2023-04-10T19:57:40.951Z,13.90
2023-04-10T20:00:09.994Z,12.34
2023-04-10T20:02:42.381Z,13.28
2023-04-10T20:05:11.173Z,14.10
2023-04-10T20:07:39.768Z,12.53
2023-04-10T20:10:08.616Z,14.23
2023-04-10T20:12:37.135Z,13.40
2023-04-10T20:15:05.930Z,12.60
2023-04-10T20:17:34.750Z,14.13
2023-04-10T20:20:03.381Z,11.43
2023-04-10T20:22:31.914Z,11.33
2023-04-10T20:25:00.735Z,11.57
2023-04-10T20:27:29.271Z,12.73
2023-04-10T20:29:58.104Z,12.80
2023-04-10T20:32:26.647Z,12.80
2023-04-10T20:34:55.584Z,12.30
2023-04-10T20:37:24.096Z,11.47
2023-04-10T20:39:52.672Z,10.67
2023-04-10T20:42:21.126Z,12.03
2023-04-10T20:44:50.320Z,11.35
2023-04-10T20:47:18.856Z,10.63
2023-04-10T20:49:47.381Z,11.97
2023-04-10T20:52:16.014Z,11.77
2023-04-10T20:54:44.541Z,12.77
2023-04-10T20:57:12.921Z,12.53
2023-04-10T20:59:41.487Z,11.90
2023-04-10T21:02:10.209Z,12.17
2023-04-10T21:04:39.140Z,12.43
2023-04-10T21:07:07.519Z,12.67
2023-04-10T21:09:36.101Z,12.33
2023-04-10T21:12:05.722Z,13.48
2023-04-10T21:14:35.613Z,15.08
2023-04-10T21:17:05.304Z,14.78
2023-04-10T21:19:33.857Z,13.53
2023-04-10T21:22:02.662Z,12.73
2023-04-10T21:24:31.432Z,12.80
2023-04-10T21:27:00.026Z,12.63
2023-04-10T21:29:28.575Z,11.97
2023-04-10T21:31:57.286Z,11.17
2023-04-10T21:34:26.145Z,11.40
2023-04-10T21:36:56.249Z,12.67
2023-04-10T21:39:24.721Z,12.10
2023-04-10T21:41:53.229Z,11.67
2023-04-10T21:44:21.735Z,12.23
2023-04-10T21:46:50.337Z,12.63
2023-04-10T21:49:18.876Z,13.80
2023-04-10T21:51:47.340Z,15.20
2023-04-10T21:54:15.732Z,14.17
2023-04-10T21:56:44.230Z,14.03
2023-04-10T21:59:13.042Z,13.10
2023-04-10T22:01:41.780Z,13.10
2023-04-10T22:04:10.627Z,12.87
2023-04-10T22:06:39.245Z,11.97
2023-04-10T22:09:07.765Z,12.70
2023-04-10T22:11:38.206Z,12.37
2023-04-10T22:14:15.412Z,12.37
2023-04-10T22:16:37.153Z,12.77
2023-04-10T22:19:06.081Z,12.60
2023-04-10T22:21:34.577Z,14.40
2023-04-10T22:24:03.559Z,16.82
2023-04-10T22:26:33.290Z,16.10
2023-04-10T22:29:01.791Z,17.13
2023-04-10T22:31:31.006Z,15.93
2023-04-10T22:33:59.633Z,15.27
2023-04-10T22:36:33.903Z,15.50
2023-04-10T22:39:02.681Z,15.67
2023-04-10T22:41:32.646Z,15.53
2023-04-10T22:44:01.256Z,17.50
2023-04-10T22:46:29.812Z,16.23
2023-04-10T22:48:58.713Z,15.28
2023-04-10T22:51:27.302Z,15.10
2023-04-10T22:53:56.950Z,14.23
2023-04-10T22:56:27.074Z,14.47
2023-04-10T22:58:55.420Z,13.90
2023-04-10T23:01:23.795Z,15.20
2023-04-10T23:03:54.187Z,15.37
2023-04-10T23:06:22.739Z,15.43
2023-04-10T23:08:54.501Z,15.83
2023-04-10T23:11:23.059Z,15.37
2023-04-10T23:13:51.837Z,15.93
2023-04-10T23:16:20.382Z,15.23
2023-04-10T23:18:50.308Z,14.90
2023-04-10T23:21:19.686Z,14.50
2023-04-10T23:23:48.233Z,16.43
2023-04-10T23:26:16.726Z,17.23
2023-04-10T23:28:45.227Z,17.87
2023-04-10T23:31:13.584Z,16.40
2023-04-10T23:33:42.202Z,19.47
2023-04-10T23:36:11.081Z,21.55
2023-04-10T23:38:39.650Z,20.33
2023-04-10T23:41:08.055Z,20.33
2023-04-10T23:43:36.854Z,21.75
2023-04-10T23:46:05.299Z,20.47
2023-04-10T23:48:33.859Z,18.80
2023-04-10T23:51:09.013Z,18.57
2023-04-10T23:53:37.510Z,18.90
2023-04-10T23:56:07.699Z,19.97
2023-04-10T23:58:36.524Z,20.02
